Halwa — ZGAP7 — position and weather

sailwx.info

Track history (hours):
 
Tides and Currents Weather Stations Pressure Air Temp Water Temp Dewpoint Dewpoint Depression Visibility Wind Speed Wind Dir Waves Ship Positions

Halwa

Last reported at 2015-Aug-05 14:30 UTC. Time now 2015-Aug-29 17:02 UTC.
Position N 42°23' E 018°39'.
Warning: this ship's position is 24 days out of date.

Length 27 m.

Type: Pleasure craft. MMSI: 319035100.

Date/timePositionNaut miles runAvg speedWind from/ knotsBaromVisibWave heightAir tempDewpointWater temp
2015-Aug-05 14:30N 42°23' E 018°39'0 0.0
2015-Aug-05 13:33N 42°23' E 018°39'0 0.0
2015-Aug-05 12:21N 42°23' E 018°39'0 0.0
2015-Aug-05 11:33N 42°23' E 018°39'0 0.0
2015-Aug-05 10:30N 42°23' E 018°39'5 0.2
2015-Aug-04 12:07N 42°26' E 018°34'6 9.9
2015-Aug-04 11:33N 42°25' E 018°41'0 0.2
2015-Aug-04 10:33N 42°26' E 018°42'0 0.0
2015-Aug-04 09:33N 42°26' E 018°42'0 0.0
2015-Aug-04 08:33N 42°26' E 018°42'0 0.0
2015-Aug-04 07:33N 42°26' E 018°42'3 2.5
2015-Aug-04 06:33N 42°28' E 018°41'4 3.5
2015-Aug-04 05:33N 42°29' E 018°45'0 0.0
2015-Aug-04 04:33N 42°29' E 018°45'0 0.0
2015-Aug-04 03:33N 42°29' E 018°45'0 0.0
2015-Aug-04 02:33N 42°29' E 018°45'0 0.0
2015-Aug-04 01:33N 42°29' E 018°45'0 0.0
2015-Aug-04 00:30N 42°29' E 018°45'0 0.0
2015-Aug-03 23:33N 42°29' E 018°45'0 0.0
2015-Aug-03 22:33N 42°29' E 018°45'0 0.0
2015-Aug-03 21:33N 42°29' E 018°45'0 0.1
2015-Aug-03 20:33N 42°29' E 018°45'0 0.0
2015-Aug-03 19:33N 42°29' E 018°45'0 0.0
2015-Aug-03 18:33N 42°29' E 018°45'0 0.0
2015-Aug-03 17:33N 42°29' E 018°45'0 0.0
2015-Aug-03 16:33N 42°29' E 018°45'0 0.1
2015-Aug-03 15:33N 42°29' E 018°45'0 0.0
2015-Aug-03 14:33N 42°29' E 018°46'0 0.0
2015-Aug-03 13:33N 42°29' E 018°45'0 0.0
2015-Aug-03 12:33N 42°29' E 018°45'0 0.0
2015-Aug-03 11:32N 42°29' E 018°46'0 0.0
2015-Aug-03 10:29N 42°29' E 018°45'4 4.5
2015-Aug-03 09:31N 42°26' E 018°41'0 0.0
2015-Aug-03 08:31N 42°26' E 018°41'0 0.0
2015-Aug-03 07:31N 42°26' E 018°41'0 0.0
2015-Aug-03 06:31N 42°26' E 018°41'0 0.0
2015-Aug-03 05:31N 42°26' E 018°41'0 0.0
2015-Aug-03 04:31N 42°26' E 018°41'0 0.0
2015-Aug-03 03:31N 42°26' E 018°41'0 0.0
2015-Aug-03 02:31N 42°26' E 018°41'0 0.0
2015-Aug-03 01:31N 42°26' E 018°41'0 0.0
2015-Aug-03 00:31N 42°26' E 018°41'0 0.0
2015-Aug-02 23:31N 42°26' E 018°41'0 0.0
2015-Aug-02 22:31N 42°26' E 018°41'0 0.0
2015-Aug-02 21:31N 42°26' E 018°41'0 0.0
2015-Aug-02 20:31N 42°26' E 018°41'0 0.0
2015-Aug-02 19:31N 42°26' E 018°41'0 0.0
2015-Aug-02 18:31N 42°26' E 018°42'1 0.6
2015-Aug-02 17:33N 42°25' E 018°41'0 0.4
2015-Aug-02 16:33N 42°25' E 018°41'0 0.0
2015-Aug-02 15:33N 42°25' E 018°41'1 1.0
2015-Aug-02 14:33N 42°26' E 018°41'0 0.0
2015-Aug-02 13:33N 42°26' E 018°41'0 0.0
2015-Aug-02 12:33N 42°26' E 018°41'0 0.0
2015-Aug-02 11:33N 42°26' E 018°41'0 0.0
2015-Aug-02 07:33N 42°26' E 018°41'0 0.0
2015-Aug-02 06:33N 42°26' E 018°41'0 0.0
2015-Aug-02 05:33N 42°26' E 018°41'0 0.0
2015-Aug-02 04:33N 42°26' E 018°41'0 0.0
2015-Aug-02 03:33N 42°26' E 018°41'0 0.0
2015-Aug-02 02:33N 42°26' E 018°41'0 0.0
2015-Aug-02 01:33N 42°26' E 018°41'0 0.0
2015-Aug-02 00:33N 42°26' E 018°41'0 0.0
2015-Aug-01 23:33N 42°26' E 018°41'0 0.0
2015-Aug-01 22:33N 42°26' E 018°41'0 0.0
2015-Aug-01 21:33N 42°26' E 018°41'0 0.0
2015-Aug-01 20:33N 42°26' E 018°41'0 0.0
2015-Aug-01 19:33N 42°26' E 018°41'0 0.0
2015-Aug-01 18:33N 42°26' E 018°41'0 0.0
2015-Aug-01 17:33N 42°26' E 018°41'0 0.0
2015-Aug-01 16:33N 42°26' E 018°41'0 0.0
2015-Aug-01 15:33N 42°26' E 018°41'0 0.0
2015-Aug-01 14:33N 42°26' E 018°41'0 0.0
2015-Aug-01 13:33N 42°26' E 018°41'0 0.0
2015-Aug-01 12:33N 42°26' E 018°41'0 0.0
2015-Aug-01 11:33N 42°26' E 018°41'0 0.0
2015-Aug-01 10:33N 42°26' E 018°41'0 0.3
2015-Aug-01 09:33N 42°26' E 018°41'0 0.0
2015-Aug-01 08:33N 42°26' E 018°41'0 0.0
2015-Aug-01 07:33N 42°26' E 018°41'0 0.0
2015-Aug-01 06:33N 42°26' E 018°41'0 0.3
2015-Aug-01 05:32N 42°26' E 018°41'0 0.0
2015-Aug-01 04:32N 42°26' E 018°41'0 0.0
2015-Aug-01 03:32N 42°26' E 018°41'0 0.0
2015-Aug-01 02:32N 42°26' E 018°41'0 0.0
2015-Aug-01 01:32N 42°26' E 018°41'0 0.0
2015-Aug-01 00:32N 42°26' E 018°41'0 0.0
2015-Jul-31 23:32N 42°26' E 018°41'0 0.0
2015-Jul-31 22:32N 42°26' E 018°41'0 0.0
2015-Jul-31 21:32N 42°26' E 018°41'0 0.0
2015-Jul-31 20:32N 42°26' E 018°41'0 0.0
2015-Jul-31 19:32N 42°26' E 018°41'0 0.0
2015-Jul-31 18:32N 42°26' E 018°41'0 0.1
2015-Jul-31 17:33N 42°26' E 018°41'0 0.2
2015-Jul-31 16:33N 42°26' E 018°41'0 0.0
2015-Jul-31 15:33N 42°26' E 018°41'0 0.0
2015-Jul-31 14:33N 42°26' E 018°41'  
Track history (hours):
 
Tides and Currents Weather Stations Pressure Air Temp Water Temp Dewpoint Dewpoint Depression Visibility Wind Speed Wind Dir Waves Ship Positions

Halwa

Last reported at 2015-Aug-05 14:30 UTC. Time now 2015-Aug-29 17:02 UTC.
Position N 42°23' E 018°39'.
Warning: this ship's position is 24 days out of date.

Length 27 m.

Type: Pleasure craft. MMSI: 319035100.

Date/timePositionNaut miles runAvg speedWind from/ knotsBaromVisibWave heightAir tempDewpointWater temp
2015-Aug-05 14:30N 42°23' E 018°39'0 0.0
2015-Aug-05 13:33N 42°23' E 018°39'0 0.0
2015-Aug-05 12:21N 42°23' E 018°39'0 0.0
2015-Aug-05 11:33N 42°23' E 018°39'0 0.0
2015-Aug-05 10:30N 42°23' E 018°39'5 0.2
2015-Aug-04 12:07N 42°26' E 018°34'6 9.9
2015-Aug-04 11:33N 42°25' E 018°41'0 0.2
2015-Aug-04 10:33N 42°26' E 018°42'0 0.0
2015-Aug-04 09:33N 42°26' E 018°42'0 0.0
2015-Aug-04 08:33N 42°26' E 018°42'0 0.0
2015-Aug-04 07:33N 42°26' E 018°42'3 2.5
2015-Aug-04 06:33N 42°28' E 018°41'4 3.5
2015-Aug-04 05:33N 42°29' E 018°45'0 0.0
2015-Aug-04 04:33N 42°29' E 018°45'0 0.0
2015-Aug-04 03:33N 42°29' E 018°45'0 0.0
2015-Aug-04 02:33N 42°29' E 018°45'0 0.0
2015-Aug-04 01:33N 42°29' E 018°45'0 0.0
2015-Aug-04 00:30N 42°29' E 018°45'0 0.0
2015-Aug-03 23:33N 42°29' E 018°45'0 0.0
2015-Aug-03 22:33N 42°29' E 018°45'0 0.0
2015-Aug-03 21:33N 42°29' E 018°45'0 0.1
2015-Aug-03 20:33N 42°29' E 018°45'0 0.0
2015-Aug-03 19:33N 42°29' E 018°45'0 0.0
2015-Aug-03 18:33N 42°29' E 018°45'0 0.0
2015-Aug-03 17:33N 42°29' E 018°45'0 0.0
2015-Aug-03 16:33N 42°29' E 018°45'0 0.1
2015-Aug-03 15:33N 42°29' E 018°45'0 0.0
2015-Aug-03 14:33N 42°29' E 018°46'0 0.0
2015-Aug-03 13:33N 42°29' E 018°45'0 0.0
2015-Aug-03 12:33N 42°29' E 018°45'0 0.0
2015-Aug-03 11:32N 42°29' E 018°46'0 0.0
2015-Aug-03 10:29N 42°29' E 018°45'4 4.5
2015-Aug-03 09:31N 42°26' E 018°41'0 0.0
2015-Aug-03 08:31N 42°26' E 018°41'0 0.0
2015-Aug-03 07:31N 42°26' E 018°41'0 0.0
2015-Aug-03 06:31N 42°26' E 018°41'0 0.0
2015-Aug-03 05:31N 42°26' E 018°41'0 0.0
2015-Aug-03 04:31N 42°26' E 018°41'0 0.0
2015-Aug-03 03:31N 42°26' E 018°41'0 0.0
2015-Aug-03 02:31N 42°26' E 018°41'0 0.0
2015-Aug-03 01:31N 42°26' E 018°41'0 0.0
2015-Aug-03 00:31N 42°26' E 018°41'0 0.0
2015-Aug-02 23:31N 42°26' E 018°41'0 0.0
2015-Aug-02 22:31N 42°26' E 018°41'0 0.0
2015-Aug-02 21:31N 42°26' E 018°41'0 0.0
2015-Aug-02 20:31N 42°26' E 018°41'0 0.0
2015-Aug-02 19:31N 42°26' E 018°41'0 0.0
2015-Aug-02 18:31N 42°26' E 018°42'1 0.6
2015-Aug-02 17:33N 42°25' E 018°41'0 0.4
2015-Aug-02 16:33N 42°25' E 018°41'0 0.0
2015-Aug-02 15:33N 42°25' E 018°41'1 1.0
2015-Aug-02 14:33N 42°26' E 018°41'0 0.0
2015-Aug-02 13:33N 42°26' E 018°41'0 0.0
2015-Aug-02 12:33N 42°26' E 018°41'0 0.0
2015-Aug-02 11:33N 42°26' E 018°41'0 0.0
2015-Aug-02 07:33N 42°26' E 018°41'0 0.0
2015-Aug-02 06:33N 42°26' E 018°41'0 0.0
2015-Aug-02 05:33N 42°26' E 018°41'0 0.0
2015-Aug-02 04:33N 42°26' E 018°41'0 0.0
2015-Aug-02 03:33N 42°26' E 018°41'0 0.0
2015-Aug-02 02:33N 42°26' E 018°41'0 0.0
2015-Aug-02 01:33N 42°26' E 018°41'0 0.0
2015-Aug-02 00:33N 42°26' E 018°41'0 0.0
2015-Aug-01 23:33N 42°26' E 018°41'0 0.0
2015-Aug-01 22:33N 42°26' E 018°41'0 0.0
2015-Aug-01 21:33N 42°26' E 018°41'0 0.0
2015-Aug-01 20:33N 42°26' E 018°41'0 0.0
2015-Aug-01 19:33N 42°26' E 018°41'0 0.0
2015-Aug-01 18:33N 42°26' E 018°41'0 0.0
2015-Aug-01 17:33N 42°26' E 018°41'0 0.0
2015-Aug-01 16:33N 42°26' E 018°41'0 0.0
2015-Aug-01 15:33N 42°26' E 018°41'0 0.0
2015-Aug-01 14:33N 42°26' E 018°41'0 0.0
2015-Aug-01 13:33N 42°26' E 018°41'0 0.0
2015-Aug-01 12:33N 42°26' E 018°41'0 0.0
2015-Aug-01 11:33N 42°26' E 018°41'0 0.0
2015-Aug-01 10:33N 42°26' E 018°41'0 0.3
2015-Aug-01 09:33N 42°26' E 018°41'0 0.0
2015-Aug-01 08:33N 42°26' E 018°41'0 0.0
2015-Aug-01 07:33N 42°26' E 018°41'0 0.0
2015-Aug-01 06:33N 42°26' E 018°41'0 0.3
2015-Aug-01 05:32N 42°26' E 018°41'0 0.0
2015-Aug-01 04:32N 42°26' E 018°41'0 0.0
2015-Aug-01 03:32N 42°26' E 018°41'0 0.0
2015-Aug-01 02:32N 42°26' E 018°41'0 0.0
2015-Aug-01 01:32N 42°26' E 018°41'0 0.0
2015-Aug-01 00:32N 42°26' E 018°41'0 0.0
2015-Jul-31 23:32N 42°26' E 018°41'0 0.0
2015-Jul-31 22:32N 42°26' E 018°41'0 0.0
2015-Jul-31 21:32N 42°26' E 018°41'0 0.0
2015-Jul-31 20:32N 42°26' E 018°41'0 0.0
2015-Jul-31 19:32N 42°26' E 018°41'0 0.0
2015-Jul-31 18:32N 42°26' E 018°41'0 0.1
2015-Jul-31 17:33N 42°26' E 018°41'0 0.2
2015-Jul-31 16:33N 42°26' E 018°41'0 0.0
2015-Jul-31 15:33N 42°26' E 018°41'0 0.0
2015-Jul-31 14:33N 42°26' E 018°41'  

Dump ship's entire track history